sensor_id;sensor_type;location;lat;lon;timestamp;pressure;altitude;pressure_sealevel;temperature;humidity
69219;BME280;56232;53.384;-2.732;2023-04-07T00:02:14;101580.15;;;4.06;35.84
69219;BME280;56232;53.384;-2.732;2023-04-07T00:04:40;101585.23;;;3.98;36.00
69219;BME280;56232;53.384;-2.732;2023-04-07T00:07:06;101591.05;;;4.38;36.45
69219;BME280;56232;53.384;-2.732;2023-04-07T00:09:36;101597.25;;;4.30;36.64
69219;BME280;56232;53.384;-2.732;2023-04-07T00:11:57;101594.81;;;4.84;36.44
69219;BME280;56232;53.384;-2.732;2023-04-07T00:14:23;101595.26;;;4.11;36.71
69219;BME280;56232;53.384;-2.732;2023-04-07T00:16:49;101592.12;;;4.67;36.84
69219;BME280;56232;53.384;-2.732;2023-04-07T00:19:14;101592.21;;;4.57;36.85
69219;BME280;56232;53.384;-2.732;2023-04-07T00:21:40;101592.65;;;3.44;37.17
69219;BME280;56232;53.384;-2.732;2023-04-07T00:24:06;101596.07;;;3.93;37.37
69219;BME280;56232;53.384;-2.732;2023-04-07T00:26:32;101599.88;;;5.05;37.15
69219;BME280;56232;53.384;-2.732;2023-04-07T00:28:57;101599.82;;;3.44;37.31
69219;BME280;56232;53.384;-2.732;2023-04-07T00:31:23;101604.34;;;4.63;37.31
69219;BME280;56232;53.384;-2.732;2023-04-07T00:33:49;101608.03;;;4.00;37.56
69219;BME280;56232;53.384;-2.732;2023-04-07T00:36:14;101608.48;;;3.54;37.64
69219;BME280;56232;53.384;-2.732;2023-04-07T00:38:39;101604.97;;;3.51;37.88
69219;BME280;56232;53.384;-2.732;2023-04-07T00:41:05;101594.66;;;4.66;37.67
69219;BME280;56232;53.384;-2.732;2023-04-07T00:43:31;101581.02;;;3.63;37.64
69219;BME280;56232;53.384;-2.732;2023-04-07T00:45:56;101569.36;;;4.73;37.83
69219;BME280;56232;53.384;-2.732;2023-04-07T00:48:22;101574.69;;;4.11;37.31
69219;BME280;56232;53.384;-2.732;2023-04-07T00:50:48;101587.26;;;4.13;36.98
69219;BME280;56232;53.384;-2.732;2023-04-07T00:53:14;101589.30;;;4.00;37.00
69219;BME280;56232;53.384;-2.732;2023-04-07T00:55:39;101583.93;;;4.68;36.71
69219;BME280;56232;53.384;-2.732;2023-04-07T00:58:05;101583.42;;;3.60;36.24
69219;BME280;56232;53.384;-2.732;2023-04-07T01:00:32;101588.30;;;3.57;36.17
69219;BME280;56232;53.384;-2.732;2023-04-07T01:03:00;101589.54;;;4.55;36.41
69219;BME280;56232;53.384;-2.732;2023-04-07T01:05:28;101591.44;;;4.43;36.59
69219;BME280;56232;53.384;-2.732;2023-04-07T01:07:57;101591.54;;;4.89;36.56
69219;BME280;56232;53.384;-2.732;2023-04-07T01:10:19;101589.52;;;4.33;36.56
69219;BME280;56232;53.384;-2.732;2023-04-07T01:12:46;101594.27;;;4.29;36.62
69219;BME280;56232;53.384;-2.732;2023-04-07T01:15:08;101597.26;;;4.11;36.80
69219;BME280;56232;53.384;-2.732;2023-04-07T01:17:32;101599.86;;;4.11;36.50
69219;BME280;56232;53.384;-2.732;2023-04-07T01:19:58;101602.91;;;4.04;36.40
69219;BME280;56232;53.384;-2.732;2023-04-07T01:22:27;101604.34;;;4.05;36.70
69219;BME280;56232;53.384;-2.732;2023-04-07T01:25:02;101598.82;;;4.11;36.95
69219;BME280;56232;53.384;-2.732;2023-04-07T01:27:21;101597.76;;;3.59;37.37
69219;BME280;56232;53.384;-2.732;2023-04-07T01:29:41;101598.71;;;4.34;37.44
69219;BME280;56232;53.384;-2.732;2023-04-07T01:32:08;101595.65;;;4.32;37.32
69219;BME280;56232;53.384;-2.732;2023-04-07T01:34:32;101595.11;;;4.29;37.40
69219;BME280;56232;53.384;-2.732;2023-04-07T01:36:58;101593.18;;;4.26;37.25
69219;BME280;56232;53.384;-2.732;2023-04-07T01:39:22;101590.57;;;4.32;36.87
69219;BME280;56232;53.384;-2.732;2023-04-07T01:41:49;101589.94;;;3.17;36.79
69219;BME280;56232;53.384;-2.732;2023-04-07T01:44:14;101590.88;;;4.22;36.51
69219;BME280;56232;53.384;-2.732;2023-04-07T01:46:40;101590.64;;;4.17;36.75
69219;BME280;56232;53.384;-2.732;2023-04-07T01:49:06;101589.42;;;4.16;36.86
69219;BME280;56232;53.384;-2.732;2023-04-07T01:51:32;101593.62;;;4.21;36.62
69219;BME280;56232;53.384;-2.732;2023-04-07T01:54:03;101591.74;;;4.26;36.89
69219;BME280;56232;53.384;-2.732;2023-04-07T01:56:23;101592.87;;;4.19;36.81
69219;BME280;56232;53.384;-2.732;2023-04-07T01:58:49;101591.34;;;4.14;36.83
69219;BME280;56232;53.384;-2.732;2023-04-07T02:01:14;101595.56;;;4.13;36.82
69219;BME280;56232;53.384;-2.732;2023-04-07T02:03:49;101596.42;;;4.06;37.00
69219;BME280;56232;53.384;-2.732;2023-04-07T02:06:07;101599.46;;;4.07;37.39
69219;BME280;56232;53.384;-2.732;2023-04-07T02:08:32;101597.62;;;4.11;37.40
69219;BME280;56232;53.384;-2.732;2023-04-07T02:10:58;101600.77;;;4.09;37.14
69219;BME280;56232;53.384;-2.732;2023-04-07T02:13:23;101598.55;;;4.02;36.78
69219;BME280;56232;53.384;-2.732;2023-04-07T02:15:49;101597.85;;;4.00;36.43
69219;BME280;56232;53.384;-2.732;2023-04-07T02:18:15;101592.97;;;4.40;36.28
69219;BME280;56232;53.384;-2.732;2023-04-07T02:20:43;101591.92;;;3.82;36.03
69219;BME280;56232;53.384;-2.732;2023-04-07T02:23:07;101591.82;;;3.12;35.88
69219;BME280;56232;53.384;-2.732;2023-04-07T02:25:32;101590.87;;;3.67;35.84
69219;BME280;56232;53.384;-2.732;2023-04-07T02:27:59;101586.43;;;4.15;36.01
69219;BME280;56232;53.384;-2.732;2023-04-07T02:30:24;101585.92;;;3.63;36.02
69219;BME280;56232;53.384;-2.732;2023-04-07T02:32:49;101587.13;;;3.60;36.21
69219;BME280;56232;53.384;-2.732;2023-04-07T02:35:15;101590.40;;;4.50;36.53
69219;BME280;56232;53.384;-2.732;2023-04-07T02:37:41;101591.00;;;3.41;37.00
69219;BME280;56232;53.384;-2.732;2023-04-07T02:40:08;101592.33;;;3.43;37.08
69219;BME280;56232;53.384;-2.732;2023-04-07T02:42:33;101594.66;;;3.52;37.27
69219;BME280;56232;53.384;-2.732;2023-04-07T02:44:58;101595.71;;;3.54;37.33
69219;BME280;56232;53.384;-2.732;2023-04-07T02:47:24;101598.06;;;3.56;37.20
69219;BME280;56232;53.384;-2.732;2023-04-07T02:49:51;101601.58;;;3.49;37.03
69219;BME280;56232;53.384;-2.732;2023-04-07T02:52:16;101600.08;;;3.47;36.84
69219;BME280;56232;53.384;-2.732;2023-04-07T02:54:41;101594.05;;;3.95;36.61
69219;BME280;56232;53.384;-2.732;2023-04-07T02:57:07;101591.06;;;3.37;36.52
69219;BME280;56232;53.384;-2.732;2023-04-07T02:59:33;101589.29;;;3.33;36.59
69219;BME280;56232;53.384;-2.732;2023-04-07T03:01:58;101593.42;;;3.66;36.64
69219;BME280;56232;53.384;-2.732;2023-04-07T03:04:24;101592.27;;;3.47;36.64
69219;BME280;56232;53.384;-2.732;2023-04-07T03:06:51;101592.72;;;2.86;36.57
69219;BME280;56232;53.384;-2.732;2023-04-07T03:09:15;101598.28;;;2.81;36.78
69219;BME280;56232;53.384;-2.732;2023-04-07T03:11:41;101599.76;;;3.85;36.29
69219;BME280;56232;53.384;-2.732;2023-04-07T03:14:07;101599.34;;;3.29;36.18
69219;BME280;56232;53.384;-2.732;2023-04-07T03:16:33;101599.63;;;3.34;35.87
69219;BME280;56232;53.384;-2.732;2023-04-07T03:18:58;101600.37;;;3.30;35.61
69219;BME280;56232;53.384;-2.732;2023-04-07T03:21:24;101597.28;;;3.75;35.37
69219;BME280;56232;53.384;-2.732;2023-04-07T03:23:50;101596.06;;;3.62;34.94
69219;BME280;56232;53.384;-2.732;2023-04-07T03:26:16;101595.61;;;2.98;34.72
69219;BME280;56232;53.384;-2.732;2023-04-07T03:28:41;101594.17;;;3.29;34.87
69219;BME280;56232;53.384;-2.732;2023-04-07T03:31:07;101593.15;;;2.76;34.90
69219;BME280;56232;53.384;-2.732;2023-04-07T03:33:33;101596.24;;;3.17;34.71
69219;BME280;56232;53.384;-2.732;2023-04-07T03:35:59;101596.76;;;3.00;34.98
69219;BME280;56232;53.384;-2.732;2023-04-07T03:38:25;101597.36;;;2.90;35.24
69219;BME280;56232;53.384;-2.732;2023-04-07T03:40:50;101599.52;;;2.84;35.68
69219;BME280;56232;53.384;-2.732;2023-04-07T03:43:16;101605.52;;;2.34;37.21
69219;BME280;56232;53.384;-2.732;2023-04-07T03:45:42;101609.35;;;2.91;37.44
69219;BME280;56232;53.384;-2.732;2023-04-07T03:48:08;101609.42;;;3.10;38.04
69219;BME280;56232;53.384;-2.732;2023-04-07T03:50:33;101606.25;;;2.73;37.83
69219;BME280;56232;53.384;-2.732;2023-04-07T03:52:59;101609.95;;;3.38;37.76
69219;BME280;56232;53.384;-2.732;2023-04-07T03:55:25;101608.84;;;2.98;37.76
69219;BME280;56232;53.384;-2.732;2023-04-07T03:57:51;101612.30;;;3.51;37.89
69219;BME280;56232;53.384;-2.732;2023-04-07T04:00:16;101611.91;;;3.03;37.85
69219;BME280;56232;53.384;-2.732;2023-04-07T04:02:42;101615.88;;;2.56;37.60
69219;BME280;56232;53.384;-2.732;2023-04-07T04:05:08;101618.19;;;3.60;37.27
69219;BME280;56232;53.384;-2.732;2023-04-07T04:07:34;101624.60;;;3.55;36.85
69219;BME280;56232;53.384;-2.732;2023-04-07T04:09:59;101628.33;;;3.42;36.57
69219;BME280;56232;53.384;-2.732;2023-04-07T04:12:25;101629.09;;;2.35;36.35
69219;BME280;56232;53.384;-2.732;2023-04-07T04:14:52;101628.89;;;2.75;36.06
69219;BME280;56232;53.384;-2.732;2023-04-07T04:17:17;101630.59;;;2.65;35.86
69219;BME280;56232;53.384;-2.732;2023-04-07T04:19:43;101630.61;;;3.08;35.63
69219;BME280;56232;53.384;-2.732;2023-04-07T04:22:09;101632.96;;;2.97;35.58
69219;BME280;56232;53.384;-2.732;2023-04-07T04:24:34;101633.55;;;2.90;35.41
69219;BME280;56232;53.384;-2.732;2023-04-07T04:27:00;101631.34;;;2.85;35.35
69219;BME280;56232;53.384;-2.732;2023-04-07T04:29:26;101630.59;;;2.75;35.48
69219;BME280;56232;53.384;-2.732;2023-04-07T04:31:53;101627.20;;;2.70;35.97
69219;BME280;56232;53.384;-2.732;2023-04-07T04:34:18;101627.72;;;2.58;36.18
69219;BME280;56232;53.384;-2.732;2023-04-07T04:36:43;101629.98;;;3.59;36.13
69219;BME280;56232;53.384;-2.732;2023-04-07T04:39:09;101631.75;;;2.55;36.51
69219;BME280;56232;53.384;-2.732;2023-04-07T04:41:35;101635.57;;;2.60;36.46
69219;BME280;56232;53.384;-2.732;2023-04-07T04:44:01;101640.02;;;2.63;36.41
69219;BME280;56232;53.384;-2.732;2023-04-07T04:46:27;101642.49;;;2.12;36.40
69219;BME280;56232;53.384;-2.732;2023-04-07T04:48:53;101642.28;;;3.15;36.10
69219;BME280;56232;53.384;-2.732;2023-04-07T04:51:18;101644.04;;;2.46;36.03
69219;BME280;56232;53.384;-2.732;2023-04-07T04:53:44;101645.23;;;2.43;35.91
69219;BME280;56232;53.384;-2.732;2023-04-07T04:56:09;101649.79;;;2.37;35.77
69219;BME280;56232;53.384;-2.732;2023-04-07T04:58:36;101652.07;;;2.30;35.84
69219;BME280;56232;53.384;-2.732;2023-04-07T05:01:00;101657.66;;;2.83;36.15
69219;BME280;56232;53.384;-2.732;2023-04-07T05:03:27;101664.73;;;2.19;36.81
69219;BME280;56232;53.384;-2.732;2023-04-07T05:05:52;101667.97;;;2.12;37.43
69219;BME280;56232;53.384;-2.732;2023-04-07T05:08:17;101670.74;;;1.63;37.24
69219;BME280;56232;53.384;-2.732;2023-04-07T05:10:42;101673.30;;;2.22;36.94
69219;BME280;56232;53.384;-2.732;2023-04-07T05:13:07;101676.08;;;2.27;36.73
69219;BME280;56232;53.384;-2.732;2023-04-07T05:15:33;101675.95;;;2.94;36.51
69219;BME280;56232;53.384;-2.732;2023-04-07T05:17:59;101677.49;;;3.38;36.49
69219;BME280;56232;53.384;-2.732;2023-04-07T05:20:25;101676.96;;;2.23;36.76
69219;BME280;56232;53.384;-2.732;2023-04-07T05:22:52;101678.65;;;2.07;37.56
69219;BME280;56232;53.384;-2.732;2023-04-07T05:25:16;101678.80;;;2.03;36.56
69219;BME280;56232;53.384;-2.732;2023-04-07T05:27:41;101678.17;;;2.07;36.74
69219;BME280;56232;53.384;-2.732;2023-04-07T05:30:08;101679.35;;;2.04;36.62
69219;BME280;56232;53.384;-2.732;2023-04-07T05:32:32;101682.65;;;2.05;36.35
69219;BME280;56232;53.384;-2.732;2023-04-07T05:34:57;101687.14;;;2.64;36.48
69219;BME280;56232;53.384;-2.732;2023-04-07T05:37:23;101692.22;;;2.08;36.29
69219;BME280;56232;53.384;-2.732;2023-04-07T05:39:48;101699.24;;;2.16;35.92
69219;BME280;56232;53.384;-2.732;2023-04-07T05:42:14;101702.37;;;2.17;35.88
69219;BME280;56232;53.384;-2.732;2023-04-07T05:44:39;101705.51;;;2.21;35.78
69219;BME280;56232;53.384;-2.732;2023-04-07T05:47:05;101713.45;;;2.28;35.69
69219;BME280;56232;53.384;-2.732;2023-04-07T05:49:30;101716.20;;;2.35;35.62
69219;BME280;56232;53.384;-2.732;2023-04-07T05:51:55;101717.32;;;2.43;35.40
69219;BME280;56232;53.384;-2.732;2023-04-07T05:54:21;101720.24;;;2.52;35.32
69219;BME280;56232;53.384;-2.732;2023-04-07T05:56:46;101722.12;;;2.58;35.22
69219;BME280;56232;53.384;-2.732;2023-04-07T05:59:12;101717.99;;;3.29;35.03
69219;BME280;56232;53.384;-2.732;2023-04-07T06:01:37;101720.48;;;2.77;34.66
69219;BME280;56232;53.384;-2.732;2023-04-07T06:04:02;101721.08;;;2.80;34.83
69219;BME280;56232;53.384;-2.732;2023-04-07T06:06:28;101717.93;;;2.95;34.86
69219;BME280;56232;53.384;-2.732;2023-04-07T06:08:54;101723.39;;;3.56;34.89
69219;BME280;56232;53.384;-2.732;2023-04-07T06:11:25;101724.38;;;3.12;34.93
69219;BME280;56232;53.384;-2.732;2023-04-07T06:13:44;101726.69;;;3.31;34.89
69219;BME280;56232;53.384;-2.732;2023-04-07T06:16:10;101737.44;;;3.33;35.80
69219;BME280;56232;53.384;-2.732;2023-04-07T06:18:36;101744.01;;;2.85;37.17
69219;BME280;56232;53.384;-2.732;2023-04-07T06:21:02;101743.50;;;2.43;38.22
69219;BME280;56232;53.384;-2.732;2023-04-07T06:23:27;101741.03;;;3.17;38.95
69219;BME280;56232;53.384;-2.732;2023-04-07T06:25:58;101745.74;;;3.10;39.03
69219;BME280;56232;53.384;-2.732;2023-04-07T06:28:18;101750.24;;;3.92;38.44
69219;BME280;56232;53.384;-2.732;2023-04-07T06:30:43;101751.66;;;4.74;38.56
69219;BME280;56232;53.384;-2.732;2023-04-07T06:33:09;101750.00;;;4.47;38.56
69219;BME280;56232;53.384;-2.732;2023-04-07T06:35:35;101746.05;;;5.01;38.67
69219;BME280;56232;53.384;-2.732;2023-04-07T06:38:01;101749.27;;;7.91;37.26
69219;BME280;56232;53.384;-2.732;2023-04-07T06:40:26;101745.81;;;9.80;34.72
69219;BME280;56232;53.384;-2.732;2023-04-07T06:42:53;101752.19;;;9.09;35.69
69219;BME280;56232;53.384;-2.732;2023-04-07T06:45:18;101757.94;;;9.81;35.24
69219;BME280;56232;53.384;-2.732;2023-04-07T06:47:44;101756.87;;;10.97;34.58
69219;BME280;56232;53.384;-2.732;2023-04-07T06:50:10;101766.64;;;12.60;33.65
69219;BME280;56232;53.384;-2.732;2023-04-07T06:52:36;101765.06;;;15.18;32.98
69219;BME280;56232;53.384;-2.732;2023-04-07T06:55:01;101762.92;;;17.35;32.27
69219;BME280;56232;53.384;-2.732;2023-04-07T06:57:27;101765.17;;;18.13;31.98
69219;BME280;56232;53.384;-2.732;2023-04-07T06:59:54;101762.21;;;19.35;31.66
69219;BME280;56232;53.384;-2.732;2023-04-07T07:02:18;101757.73;;;20.02;29.46
69219;BME280;56232;53.384;-2.732;2023-04-07T07:04:44;101752.14;;;20.61;27.82
69219;BME280;56232;53.384;-2.732;2023-04-07T07:07:09;101753.52;;;19.75;26.48
69219;BME280;56232;53.384;-2.732;2023-04-07T07:09:35;101757.65;;;18.77;25.98
69219;BME280;56232;53.384;-2.732;2023-04-07T07:12:00;101756.89;;;19.00;24.91
69219;BME280;56232;53.384;-2.732;2023-04-07T07:14:26;101753.84;;;20.74;24.16
69219;BME280;56232;53.384;-2.732;2023-04-07T07:16:52;101758.03;;;20.74;23.70
69219;BME280;56232;53.384;-2.732;2023-04-07T07:19:17;101769.12;;;22.41;22.87
69219;BME280;56232;53.384;-2.732;2023-04-07T07:21:43;101770.27;;;22.21;22.24
69219;BME280;56232;53.384;-2.732;2023-04-07T07:24:08;101770.04;;;22.39;21.48
69219;BME280;56232;53.384;-2.732;2023-04-07T07:26:34;101774.17;;;21.83;21.30
69219;BME280;56232;53.384;-2.732;2023-04-07T07:29:00;101773.66;;;22.20;20.67
69219;BME280;56232;53.384;-2.732;2023-04-07T07:31:25;101770.36;;;22.91;20.40
69219;BME280;56232;53.384;-2.732;2023-04-07T07:33:52;101772.06;;;22.85;20.07
69219;BME280;56232;53.384;-2.732;2023-04-07T07:36:16;101774.92;;;20.87;20.33
69219;BME280;56232;53.384;-2.732;2023-04-07T07:38:48;101773.72;;;20.72;20.92
69219;BME280;56232;53.384;-2.732;2023-04-07T07:41:07;101772.20;;;20.56;20.53
69219;BME280;56232;53.384;-2.732;2023-04-07T07:43:33;101771.71;;;21.33;20.80
69219;BME280;56232;53.384;-2.732;2023-04-07T07:45:59;101775.81;;;21.14;20.88
69219;BME280;56232;53.384;-2.732;2023-04-07T07:48:24;101774.97;;;19.14;21.35
69219;BME280;56232;53.384;-2.732;2023-04-07T07:50:50;101779.51;;;20.67;21.51
69219;BME280;56232;53.384;-2.732;2023-04-07T07:53:15;101781.99;;;19.38;21.46
69219;BME280;56232;53.384;-2.732;2023-04-07T07:55:41;101781.12;;;20.35;21.21
69219;BME280;56232;53.384;-2.732;2023-04-07T07:58:06;101782.95;;;22.33;20.28
69219;BME280;56232;53.384;-2.732;2023-04-07T08:00:32;101780.89;;;23.78;19.36
69219;BME280;56232;53.384;-2.732;2023-04-07T08:02:58;101784.36;;;24.10;18.67
69219;BME280;56232;53.384;-2.732;2023-04-07T08:05:23;101785.07;;;23.79;18.43
69219;BME280;56232;53.384;-2.732;2023-04-07T08:07:51;101784.59;;;23.89;18.38
69219;BME280;56232;53.384;-2.732;2023-04-07T08:10:14;101783.01;;;24.69;17.92
69219;BME280;56232;53.384;-2.732;2023-04-07T08:12:40;101779.59;;;25.99;17.11
69219;BME280;56232;53.384;-2.732;2023-04-07T08:15:06;101781.77;;;26.82;16.48
69219;BME280;56232;53.384;-2.732;2023-04-07T08:17:31;101786.17;;;27.03;15.79
69219;BME280;56232;53.384;-2.732;2023-04-07T08:19:56;101789.74;;;26.61;15.62
69219;BME280;56232;53.384;-2.732;2023-04-07T08:22:22;101789.98;;;26.74;15.50
69219;BME280;56232;53.384;-2.732;2023-04-07T08:24:47;101793.23;;;25.75;15.70
69219;BME280;56232;53.384;-2.732;2023-04-07T08:27:13;101793.56;;;26.49;15.93
69219;BME280;56232;53.384;-2.732;2023-04-07T08:29:39;101795.29;;;26.05;15.81
69219;BME280;56232;53.384;-2.732;2023-04-07T08:32:04;101793.35;;;26.00;16.09
69219;BME280;56232;53.384;-2.732;2023-04-07T08:34:30;101796.01;;;26.29;15.63
69219;BME280;56232;53.384;-2.732;2023-04-07T08:36:55;101792.54;;;27.20;15.41
69219;BME280;56232;53.384;-2.732;2023-04-07T08:39:21;101791.70;;;27.13;15.70
69219;BME280;56232;53.384;-2.732;2023-04-07T08:41:47;101793.52;;;26.19;15.62
69219;BME280;56232;53.384;-2.732;2023-04-07T08:44:13;101788.44;;;27.13;15.64
69219;BME280;56232;53.384;-2.732;2023-04-07T08:46:38;101789.46;;;26.84;15.47
69219;BME280;56232;53.384;-2.732;2023-04-07T08:49:07;101788.73;;;27.77;15.50
69219;BME280;56232;53.384;-2.732;2023-04-07T08:51:30;101791.07;;;28.16;15.27
69219;BME280;56232;53.384;-2.732;2023-04-07T08:53:59;101785.13;;;29.12;14.93
69219;BME280;56232;53.384;-2.732;2023-04-07T08:56:20;101785.46;;;29.13;14.62
69219;BME280;56232;53.384;-2.732;2023-04-07T08:58:46;101782.11;;;28.00;14.97
69219;BME280;56232;53.384;-2.732;2023-04-07T09:01:11;101783.47;;;28.39;14.43
69219;BME280;56232;53.384;-2.732;2023-04-07T09:03:37;101785.56;;;27.99;14.76
69219;BME280;56232;53.384;-2.732;2023-04-07T09:06:02;101784.65;;;27.96;15.08
69219;BME280;56232;53.384;-2.732;2023-04-07T09:08:27;101785.37;;;27.51;15.17
69219;BME280;56232;53.384;-2.732;2023-04-07T09:10:54;101786.18;;;27.68;15.16
69219;BME280;56232;53.384;-2.732;2023-04-07T09:13:18;101785.05;;;27.96;15.08
69219;BME280;56232;53.384;-2.732;2023-04-07T09:15:44;101785.68;;;28.08;15.13
69219;BME280;56232;53.384;-2.732;2023-04-07T09:18:09;101784.16;;;28.19;14.79
69219;BME280;56232;53.384;-2.732;2023-04-07T09:23:00;101784.41;;;27.98;15.22
69219;BME280;56232;53.384;-2.732;2023-04-07T09:25:27;101783.00;;;27.60;14.79
69219;BME280;56232;53.384;-2.732;2023-04-07T09:27:56;101784.93;;;28.24;14.89
69219;BME280;56232;53.384;-2.732;2023-04-07T09:30:17;101784.44;;;27.12;15.40
69219;BME280;56232;53.384;-2.732;2023-04-07T09:32:42;101788.61;;;27.13;15.23
69219;BME280;56232;53.384;-2.732;2023-04-07T09:35:08;101787.93;;;27.06;15.42
69219;BME280;56232;53.384;-2.732;2023-04-07T09:37:34;101786.06;;;28.04;15.08
69219;BME280;56232;53.384;-2.732;2023-04-07T09:39:59;101781.44;;;27.42;15.06
69219;BME280;56232;53.384;-2.732;2023-04-07T09:42:25;101780.74;;;27.81;14.87
69219;BME280;56232;53.384;-2.732;2023-04-07T09:44:51;101779.79;;;27.42;14.89
69219;BME280;56232;53.384;-2.732;2023-04-07T09:47:16;101778.29;;;27.78;14.82
69219;BME280;56232;53.384;-2.732;2023-04-07T09:49:48;101778.27;;;27.71;15.27
69219;BME280;56232;53.384;-2.732;2023-04-07T09:52:07;101781.05;;;27.30;14.93
69219;BME280;56232;53.384;-2.732;2023-04-07T09:54:34;101781.33;;;26.77;15.30
69219;BME280;56232;53.384;-2.732;2023-04-07T09:56:59;101780.12;;;27.24;15.91
69219;BME280;56232;53.384;-2.732;2023-04-07T09:59:24;101781.12;;;27.25;15.35
69219;BME280;56232;53.384;-2.732;2023-04-07T10:01:49;101778.76;;;26.49;15.58
69219;BME280;56232;53.384;-2.732;2023-04-07T10:04:15;101774.75;;;26.59;14.72
69219;BME280;56232;53.384;-2.732;2023-04-07T10:06:41;101779.12;;;25.58;16.15
69219;BME280;56232;53.384;-2.732;2023-04-07T10:09:06;101775.00;;;24.36;17.47
69219;BME280;56232;53.384;-2.732;2023-04-07T10:11:31;101778.59;;;23.61;17.61
69219;BME280;56232;53.384;-2.732;2023-04-07T10:13:57;101780.01;;;21.93;19.18
69219;BME280;56232;53.384;-2.732;2023-04-07T10:16:23;101777.02;;;21.43;19.43
69219;BME280;56232;53.384;-2.732;2023-04-07T10:18:48;101778.30;;;20.76;20.47
69219;BME280;56232;53.384;-2.732;2023-04-07T10:21:15;101774.55;;;21.07;20.68
69219;BME280;56232;53.384;-2.732;2023-04-07T10:23:47;101771.57;;;22.67;19.50
69219;BME280;56232;53.384;-2.732;2023-04-07T10:26:06;101769.25;;;23.21;19.89
69219;BME280;56232;53.384;-2.732;2023-04-07T10:28:31;101770.31;;;23.17;18.21
69219;BME280;56232;53.384;-2.732;2023-04-07T10:30:57;101770.25;;;23.99;18.72
69219;BME280;56232;53.384;-2.732;2023-04-07T10:38:13;101774.84;;;23.44;17.87
69219;BME280;56232;53.384;-2.732;2023-04-07T10:40:39;101774.95;;;23.10;18.80
69219;BME280;56232;53.384;-2.732;2023-04-07T10:43:05;101775.36;;;21.90;20.87
69219;BME280;56232;53.384;-2.732;2023-04-07T10:50:22;101780.60;;;18.64;23.69
69219;BME280;56232;53.384;-2.732;2023-04-07T10:52:47;101779.02;;;17.77;24.70
69219;BME280;56232;53.384;-2.732;2023-04-07T10:57:37;101786.84;;;17.19;26.51
69219;BME280;56232;53.384;-2.732;2023-04-07T11:02:32;101789.88;;;16.81;29.69
69219;BME280;56232;53.384;-2.732;2023-04-07T11:04:54;101792.22;;;17.31;27.93
69219;BME280;56232;53.384;-2.732;2023-04-07T11:09:45;101784.27;;;16.84;26.13
69219;BME280;56232;53.384;-2.732;2023-04-07T11:12:21;101788.15;;;16.69;29.99
69219;BME280;56232;53.384;-2.732;2023-04-07T11:14:37;101783.98;;;16.21;31.80
69219;BME280;56232;53.384;-2.732;2023-04-07T11:17:02;101781.38;;;16.17;30.17
69219;BME280;56232;53.384;-2.732;2023-04-07T11:19:28;101781.88;;;16.08;32.04
69219;BME280;56232;53.384;-2.732;2023-04-07T11:26:45;101775.54;;;16.35;30.95
69219;BME280;56232;53.384;-2.732;2023-04-07T11:29:10;101777.42;;;16.54;34.15
69219;BME280;56232;53.384;-2.732;2023-04-07T11:31:37;101773.32;;;16.48;30.11
69219;BME280;56232;53.384;-2.732;2023-04-07T11:34:04;101772.94;;;17.10;34.96
69219;BME280;56232;53.384;-2.732;2023-04-07T11:36:29;101771.33;;;16.47;32.84
69219;BME280;56232;53.384;-2.732;2023-04-07T11:38:54;101767.39;;;16.39;33.03
69219;BME280;56232;53.384;-2.732;2023-04-07T11:41:19;101767.80;;;15.68;34.32
69219;BME280;56232;53.384;-2.732;2023-04-07T11:43:44;101766.54;;;16.61;34.36
69219;BME280;56232;53.384;-2.732;2023-04-07T11:46:12;101767.59;;;16.48;33.39
69219;BME280;56232;53.384;-2.732;2023-04-07T11:48:37;101768.08;;;15.94;36.78
69219;BME280;56232;53.384;-2.732;2023-04-07T11:51:02;101767.07;;;16.20;37.81
69219;BME280;56232;53.384;-2.732;2023-04-07T11:53:28;101768.51;;;16.35;36.55
69219;BME280;56232;53.384;-2.732;2023-04-07T11:55:58;101768.86;;;15.83;37.42
69219;BME280;56232;53.384;-2.732;2023-04-07T11:58:18;101769.07;;;16.41;37.93
69219;BME280;56232;53.384;-2.732;2023-04-07T12:00:52;101762.85;;;16.75;38.26
69219;BME280;56232;53.384;-2.732;2023-04-07T12:03:10;101761.39;;;16.83;34.86
69219;BME280;56232;53.384;-2.732;2023-04-07T12:05:41;101766.76;;;16.89;36.04
69219;BME280;56232;53.384;-2.732;2023-04-07T12:08:00;101767.20;;;17.50;35.93
69219;BME280;56232;53.384;-2.732;2023-04-07T12:10:26;101763.53;;;16.48;33.67
69219;BME280;56232;53.384;-2.732;2023-04-07T12:12:52;101760.21;;;16.66;29.98
69219;BME280;56232;53.384;-2.732;2023-04-07T12:15:17;101759.63;;;16.91;28.95
69219;BME280;56232;53.384;-2.732;2023-04-07T12:17:44;101757.76;;;16.64;26.53
69219;BME280;56232;53.384;-2.732;2023-04-07T12:20:09;101752.74;;;17.13;26.47
69219;BME280;56232;53.384;-2.732;2023-04-07T12:22:34;101758.76;;;17.66;24.83
69219;BME280;56232;53.384;-2.732;2023-04-07T12:24:59;101756.59;;;17.00;24.31
69219;BME280;56232;53.384;-2.732;2023-04-07T12:27:25;101751.61;;;17.11;23.83
69219;BME280;56232;53.384;-2.732;2023-04-07T12:29:50;101749.73;;;17.44;24.02
69219;BME280;56232;53.384;-2.732;2023-04-07T12:32:16;101751.37;;;17.46;23.10
69219;BME280;56232;53.384;-2.732;2023-04-07T12:34:41;101747.35;;;17.53;24.01
69219;BME280;56232;53.384;-2.732;2023-04-07T12:37:07;101746.02;;;17.60;23.81
69219;BME280;56232;53.384;-2.732;2023-04-07T12:39:32;101746.60;;;17.09;23.50
69219;BME280;56232;53.384;-2.732;2023-04-07T12:41:58;101748.41;;;16.63;23.61
69219;BME280;56232;53.384;-2.732;2023-04-07T12:44:24;101746.93;;;17.68;24.28
69219;BME280;56232;53.384;-2.732;2023-04-07T12:46:49;101746.35;;;17.63;22.35
69219;BME280;56232;53.384;-2.732;2023-04-07T12:49:15;101747.37;;;17.21;23.46
69219;BME280;56232;53.384;-2.732;2023-04-07T12:51:41;101751.09;;;17.79;23.01
69219;BME280;56232;53.384;-2.732;2023-04-07T12:54:06;101749.07;;;16.47;22.77
69219;BME280;56232;53.384;-2.732;2023-04-07T12:56:32;101746.47;;;16.82;23.07
69219;BME280;56232;53.384;-2.732;2023-04-07T12:58:57;101744.13;;;16.67;23.32
69219;BME280;56232;53.384;-2.732;2023-04-07T13:01:23;101738.46;;;16.21;23.26